| time (UTC) | temp C | wind direction | speed KPH | gust KPH | rain 1hr cm | rain 24hr cm | rain mn cm | humidity % | barometer mb |
| 20260506202512 | 13 | 198 | 12.9 | 25.7 | 0.10 | 0.58 | 0.58 | 92 | 1006.2 |
| 20260506202011 | 13 | 219 | 11.3 | 17.7 | 0.10 | 0.58 | 0.58 | 92 | 1006.2 |
| 20260506201526 | 13 | 209 | 11.3 | 24.1 | 0.13 | 0.58 | 0.58 | 92 | 1006.2 |
| 20260506201007 | 13 | 214 | 9.7 | 24.1 | 0.13 | 0.56 | 0.56 | 92 | 1006.4 |
| 20260506200507 | 13 | 209 | 11.3 | 22.5 | 0.10 | 0.53 | 0.53 | 92 | 1006.3 |
| 20260506200026 | 13 | 202 | 11.3 | 24.1 | 0.13 | 0.53 | 0.53 | 92 | 1006.4 |
| 20260506195506 | 13 | 234 | 12.9 | 29.0 | 0.13 | 0.53 | 0.53 | 91 | 1006.5 |
| 20260506195010 | 13 | 248 | 16.1 | 29.0 | 0.13 | 0.51 | 0.51 | 91 | 1006.5 |
| 20260506194526 | 13 | 186 | 9.7 | 29.0 | 0.15 | 0.51 | 0.51 | 91 | 1006.6 |
| 20260506194008 | 13 | 200 | 11.3 | 35.4 | 0.15 | 0.51 | 0.51 | 91 | 1006.6 |
| 20260506193512 | 13 | 182 | 16.1 | 33.8 | 0.15 | 0.48 | 0.48 | 91 | 1006.5 |
| 20260506193028 | 13 | 209 | 12.9 | 25.7 | 0.15 | 0.48 | 0.48 | 91 | 1006.6 |
| 20260506192509 | 13 | 184 | 11.3 | 24.1 | 0.18 | 0.48 | 0.48 | 91 | 1006.7 |
| 20260506192014 | 13 | 213 | 9.7 | 24.1 | 0.18 | 0.48 | 0.48 | 91 | 1006.7 |
| 20260506191529 | 13 | 194 | 14.5 | 22.5 | 0.15 | 0.46 | 0.46 | 91 | 1006.7 |
| 20260506191010 | 13 | 203 | 9.7 | 29.0 | 0.15 | 0.43 | 0.43 | 91 | 1006.8 |
| 20260506190511 | 13 | 232 | 16.1 | 29.0 | 0.15 | 0.43 | 0.43 | 91 | 1006.7 |
| 20260506190034 | 14 | 199 | 8.0 | 25.7 | 0.15 | 0.41 | 0.41 | 91 | 1006.7 |
| 20260506185505 | 14 | 203 | 6.4 | 20.9 | 0.18 | 0.41 | 0.41 | 91 | 1006.7 |
| 20260506185006 | 14 | 209 | 9.7 | 20.9 | 0.15 | 0.38 | 0.38 | 91 | 1006.8 |
| 20260506184525 | 14 | 188 | 14.5 | 29.0 | 0.13 | 0.36 | 0.36 | 91 | 1006.9 |
| 20260506184006 | 14 | 232 | 9.7 | 29.0 | 0.13 | 0.36 | 0.36 | 91 | 1007.0 |
| 20260506183510 | 14 | 215 | 11.3 | 22.5 | 0.10 | 0.33 | 0.33 | 91 | 1007.1 |
| 20260506183025 | 14 | 213 | 9.7 | 20.9 | 0.10 | 0.33 | 0.33 | 91 | 1007.1 |
| 20260506182508 | 14 | 170 | 9.7 | 20.9 | 0.08 | 0.30 | 0.30 | 90 | 1007.2 |
| 20260506182015 | 14 | 178 | 11.3 | 17.7 | 0.10 | 0.30 | 0.30 | 90 | 1007.3 |
| 20260506181526 | 14 | 167 | 6.4 | 22.5 | 0.10 | 0.30 | 0.30 | 91 | 1007.3 |
| 20260506181003 | 14 | 194 | 11.3 | 22.5 | 0.08 | 0.28 | 0.28 | 91 | 1007.3 |
| 20260506180506 | 14 | 211 | 9.7 | 16.1 | 0.10 | 0.28 | 0.28 | 90 | 1007.4 |
| 20260506180018 | 14 | 218 | 4.8 | 14.5 | 0.10 | 0.25 | 0.25 | 90 | 1007.3 |
| 20260506175507 | 15 | 209 | 8.0 | 14.5 | 0.10 | 0.23 | 0.23 | 90 | 1007.4 |
| 20260506175008 | 15 | 199 | 4.8 | 17.7 | 0.13 | 0.23 | 0.23 | 90 | 1007.3 |
| 20260506174522 | 15 | 211 | 8.0 | 20.9 | 0.15 | 0.23 | 0.23 | 90 | 1007.3 |
| 20260506174010 | 15 | 187 | 9.7 | 24.1 | 0.18 | 0.23 | 0.23 | 90 | 1007.3 |
| 20260506173506 | 15 | 150 | 8.0 | 24.1 | 0.20 | 0.23 | 0.23 | 90 | 1007.3 |
| 20260506173006 | 15 | 205 | 6.4 | 24.1 | 0.20 | 0.23 | 0.23 | 89 | 1007.3 |
| 20260506172502 | 15 | 184 | 8.0 | 24.1 | 0.23 | 0.23 | 0.23 | 89 | 1007.3 |
| 20260506172003 | 15 | 142 | 9.7 | 20.9 | 0.20 | 0.20 | 0.20 | 89 | 1007.3 |
| 20260506171515 | 15 | 211 | 9.7 | 19.3 | 0.20 | 0.20 | 0.20 | 89 | 1007.7 |
| 20260506171007 | 15 | 209 | 9.7 | 12.9 | 0.20 | 0.20 | 0.20 | 88 | 1007.7 |
| 20260506170511 | 15 | 142 | 6.4 | 12.9 | 0.18 | 0.18 | 0.18 | 88 | 1007.7 |
| 20260506170021 | 15 | 192 | 6.4 | 12.9 | 0.15 | 0.15 | 0.15 | 87 | 1008.1 |
| 20260506165510 | 15 | 190 | 4.8 | 19.3 | 0.13 | 0.13 | 0.13 | 86 | 1008.2 |
| 20260506165006 | 15 | 180 | 6.4 | 22.5 | 0.10 | 0.10 | 0.10 | 85 | 1008.7 |
| 20260506164520 | 15 | 174 | 8.0 | 22.5 | 0.08 | 0.08 | 0.08 | 85 | 1008.7 |
| 20260506164009 | 15 | 184 | 9.7 | 19.3 | 0.05 | 0.05 | 0.05 | 84 | 1008.7 |
| 20260506163507 | 16 | 239 | 9.7 | 16.1 | 0.03 | 0.03 | 0.03 | 84 | 1008.7 |
| 20260506163040 | 16 | 198 | 6.4 | 16.1 | 0.03 | 0.03 | 0.03 | 83 | 1008.8 |
| 20260506162507 | 16 | 212 | 4.8 | 16.1 | 0.00 | 0.00 | 0.00 | 82 | 1008.6 |
| 20260506162014 | 16 | 209 | 8.0 | 20.9 | 0.00 | 0.00 | 0.00 | 81 | 1008.5 |
| 20260506161512 | 16 | 193 | 9.7 | 20.9 | 0.00 | 0.00 | 0.00 | 81 | 1008.6 |
| 20260506161002 | 16 | 189 | 12.9 | 20.9 | 0.00 | 0.00 | 0.00 | 80 | 1008.6 |
| 20260506160506 | 16 | 211 | 8.0 | 30.6 | 0.00 | 0.00 | 0.00 | 78 | 1008.7 |
| 20260506160015 | 16 | 197 | 11.3 | 30.6 | 0.00 | 0.00 | 0.00 | 78 | 1008.7 |
| 20260506155504 | 16 | 210 | 17.7 | 30.6 | 0.00 | 0.00 | 0.00 | 77 | 1008.8 |
| 20260506155006 | 16 | 211 | 9.7 | 29.0 | 0.00 | 0.00 | 0.00 | 77 | 1008.8 |
| 20260506154530 | 16 | 207 | 12.9 | 29.0 | 0.00 | 0.00 | 0.00 | 77 | 1009.0 |
| 20260506154010 | 16 | 182 | 12.9 | 29.0 | 0.00 | 0.00 | 0.00 | 77 | 1009.1 |
| 20260506153512 | 16 | 196 | 14.5 | 29.0 | 0.00 | 0.00 | 0.00 | 77 | 1009.1 |
| 20260506153027 | 16 | 238 | 11.3 | 20.9 | 0.00 | 0.00 | 0.00 | 77 | 1009.1 |
| 20260506152510 | 16 | 239 | 12.9 | 20.9 | 0.00 | 0.00 | 0.00 | 77 | 1009.1 |
| 20260506152014 | 16 | 180 | 11.3 | 27.4 | 0.00 | 0.00 | 0.00 | 77 | 1009.2 |
| 20260506151534 | 16 | 203 | 16.1 | 27.4 | 0.00 | 0.00 | 0.00 | 77 | 1009.1 |
| 20260506151008 | 16 | 169 | 14.5 | 22.5 | 0.00 | 0.00 | 0.00 | 78 | 1009.1 |
| 20260506150503 | 16 | 228 | 11.3 | 20.9 | 0.00 | 0.00 | 0.00 | 78 | 1009.3 |
| 20260506150010 | 16 | 189 | 8.0 | 33.8 | 0.00 | 0.00 | 0.00 | 78 | 1009.3 |
| 20260506145508 | 16 | 255 | 17.7 | 33.8 | 0.00 | 0.00 | 0.00 | 78 | 1009.4 |
| 20260506145005 | 16 | 213 | 14.5 | 29.0 | 0.00 | 0.00 | 0.00 | 78 | 1009.3 |
| 20260506144517 | 16 | 251 | 11.3 | 29.0 | 0.00 | 0.00 | 0.00 | 79 | 1009.4 |
| 20260506144004 | 16 | 204 | 8.0 | 25.7 | 0.00 | 0.00 | 0.00 | 79 | 1009.5 |
| 20260506143507 | 16 | 207 | 14.5 | 27.4 | 0.00 | 0.00 | 0.00 | 79 | 1009.5 |
| 20260506143022 | 16 | 217 | 9.7 | 27.4 | 0.00 | 0.00 | 0.00 | 79 | 1009.5 |
| 20260506142508 | 16 | 199 | 8.0 | 27.4 | 0.00 | 0.00 | 0.00 | 79 | 1009.4 |
| 20260506142010 | 15 | 198 | 12.9 | 29.0 | 0.00 | 0.00 | 0.00 | 80 | 1009.4 |
| 20260506141526 | 15 | 201 | 9.7 | 29.0 | 0.00 | 0.00 | 0.00 | 80 | 1009.3 |
| 20260506141016 | 15 | 228 | 14.5 | 27.4 | 0.00 | 0.00 | 0.00 | 79 | 1009.2 |
| 20260506140508 | 15 | 200 | 9.7 | 25.7 | 0.00 | 0.00 | 0.00 | 80 | 1009.3 |
| 20260506140033 | 15 | 197 | 14.5 | 25.7 | 0.00 | 0.00 | 0.00 | 80 | 1009.4 |
| 20260506135514 | 15 | 183 | 12.9 | 22.5 | 0.00 | 0.00 | 0.00 | 80 | 1009.3 |
| 20260506135004 | 15 | 219 | 11.3 | 22.5 | 0.00 | 0.00 | 0.00 | 80 | 1009.1 |
| 20260506134516 | 15 | 200 | 9.7 | 25.7 | 0.00 | 0.00 | 0.00 | 80 | 1009.2 |
| 20260506134009 | 15 | 198 | 8.0 | 25.7 | 0.00 | 0.00 | 0.00 | 80 | 1009.2 |
| 20260506133504 | 15 | 156 | 9.7 | 17.7 | 0.00 | 0.00 | 0.00 | 79 | 1009.1 |
| 20260506133022 | 15 | 188 | 8.0 | 19.3 | 0.00 | 0.00 | 0.00 | 80 | 1008.9 |
| 20260506132513 | 15 | 209 | 12.9 | 17.7 | 0.00 | 0.00 | 0.00 | 80 | 1008.9 |
| 20260506132007 | 15 | 189 | 9.7 | 22.5 | 0.00 | 0.00 | 0.00 | 80 | 1009.0 |
| 20260506131527 | 15 | 236 | 8.0 | 27.4 | 0.00 | 0.00 | 0.00 | 81 | 1009.0 |
| 20260506131010 | 15 | 196 | 14.5 | 27.4 | 0.00 | 0.00 | 0.00 | 80 | 1009.1 |
| 20260506130510 | 15 | 225 | 9.7 | 24.1 | 0.00 | 0.00 | 0.00 | 81 | 1009.1 |
| 20260506130026 | 15 | 207 | 12.9 | 24.1 | 0.00 | 0.00 | 0.00 | 81 | 1009.3 |
| 20260506125510 | 15 | 225 | 9.7 | 22.5 | 0.00 | 0.00 | 0.00 | 81 | 1009.4 |
| 20260506125011 | 15 | 201 | 9.7 | 22.5 | 0.00 | 0.00 | 0.00 | 81 | 1009.3 |
| 20260506124528 | 15 | 179 | 9.7 | 19.3 | 0.00 | 0.00 | 0.00 | 81 | 1009.4 |
| 20260506124006 | 15 | 185 | 8.0 | 19.3 | 0.00 | 0.00 | 0.00 | 81 | 1009.3 |
| 20260506123505 | 15 | 190 | 9.7 | 19.3 | 0.00 | 0.00 | 0.00 | 81 | 1009.3 |
| 20260506123019 | 15 | 216 | 4.8 | 19.3 | 0.00 | 0.00 | 0.00 | 82 | 1009.3 |
| 20260506122506 | 15 | 215 | 9.7 | 19.3 | 0.00 | 0.00 | 0.00 | 82 | 1009.5 |
| 20260506122008 | 15 | 199 | 11.3 | 22.5 | 0.00 | 0.00 | 0.00 | 82 | 1009.5 |
| 20260506121523 | 15 | 184 | 9.7 | 25.7 | 0.00 | 0.00 | 0.00 | 83 | 1009.5 |
| 20260506121003 | 15 | 194 | 14.5 | 25.7 | 0.00 | 0.00 | 0.00 | 83 | 1009.6 |
| 20260506120504 | 14 | 150 | 6.4 | 24.1 | 0.00 | 0.00 | 0.00 | 84 | 1009.5 |
| 20260506120012 | 14 | 185 | 11.3 | 29.0 | 0.00 | 0.00 | 0.00 | 84 | 1009.5 |
| 20260506115504 | 14 | 198 | 12.9 | 29.0 | 0.00 | 0.00 | 0.00 | 85 | 1009.7 |
| 20260506115002 | 14 | 205 | 16.1 | 24.1 | 0.00 | 0.00 | 0.00 | 85 | 1009.6 |
| 20260506114514 | 13 | 180 | 9.7 | 24.1 | 0.00 | 0.00 | 0.00 | 85 | 1009.4 |
| 20260506114005 | 13 | 169 | 11.3 | 24.1 | 0.00 | 0.00 | 0.00 | 86 | 1009.5 |
| 20260506113504 | 13 | 207 | 9.7 | 22.5 | 0.00 | 0.00 | 0.00 | 86 | 1009.7 |
| 20260506113020 | 13 | 176 | 9.7 | 25.7 | 0.00 | 0.00 | 0.00 | 86 | 1009.7 |
| 20260506112504 | 13 | 207 | 9.7 | 25.7 | 0.00 | 0.00 | 0.00 | 86 | 1009.7 |
| 20260506112006 | 13 | 198 | 9.7 | 17.7 | 0.00 | 0.00 | 0.00 | 87 | 1009.7 |
| 20260506111527 | 13 | 221 | 8.0 | 24.1 | 0.00 | 0.00 | 0.00 | 87 | 1009.8 |
| 20260506111003 | 13 | 179 | 11.3 | 24.1 | 0.00 | 0.00 | 0.00 | 87 | 1009.8 |
| 20260506110503 | 13 | 186 | 9.7 | 22.5 | 0.00 | 0.00 | 0.00 | 87 | 1009.8 |
| 20260506110010 | 13 | 227 | 6.4 | 17.7 | 0.00 | 0.00 | 0.00 | 87 | 1009.6 |
| 20260506105503 | 13 | 225 | 6.4 | 17.7 | 0.00 | 0.00 | 0.00 | 86 | 1009.6 |
| 20260506105006 | 13 | 157 | 9.7 | 17.7 | 0.00 | 0.00 | 0.00 | 87 | 1009.6 |
| 20260506104510 | 13 | 149 | 9.7 | 17.7 | 0.00 | 0.00 | 0.00 | 87 | 1009.7 |
| 20260506104007 | 13 | 192 | 8.0 | 17.7 | 0.00 | 0.00 | 0.00 | 87 | 1009.9 |
| 20260506103504 | 13 | 180 | 8.0 | 17.7 | 0.00 | 0.00 | 0.00 | 86 | 1009.8 |
| 20260506103015 | 13 | 167 | 11.3 | 22.5 | 0.00 | 0.00 | 0.00 | 86 | 1009.5 |
| 20260506102507 | 13 | 203 | 9.7 | 22.5 | 0.00 | 0.00 | 0.00 | 86 | 1009.6 |
| 20260506102008 | 13 | 175 | 8.0 | 17.7 | 0.00 | 0.00 | 0.00 | 86 | 1009.7 |
| 20260506101519 | 13 | 171 | 8.0 | 17.7 | 0.00 | 0.00 | 0.00 | 85 | 1009.7 |
| 20260506101008 | 13 | 198 | 9.7 | 17.7 | 0.00 | 0.00 | 0.00 | 85 | 1009.8 |
| 20260506100507 | 13 | 200 | 6.4 | 16.1 | 0.00 | 0.00 | 0.00 | 85 | 1009.5 |
| 20260506100005 | 13 | 222 | 8.0 | 17.7 | 0.00 | 0.00 | 0.00 | 85 | 1009.5 |
| 20260506095503 | 13 | 183 | 9.7 | 17.7 | 0.00 | 0.00 | 0.00 | 85 | 1009.4 |
| 20260506095004 | 13 | 190 | 9.7 | 14.5 | 0.00 | 0.00 | 0.00 | 84 | 1009.2 |
| 20260506094526 | 13 | 176 | 8.0 | 19.3 | 0.00 | 0.00 | 0.00 | 84 | 1009.1 |
| 20260506094005 | 13 | 160 | 4.8 | 19.3 | 0.00 | 0.00 | 0.00 | 84 | 1009.3 |
| 20260506093503 | 13 | 217 | 8.0 | 16.1 | 0.00 | 0.00 | 0.00 | 84 | 1009.1 |
| 20260506093013 | 13 | 209 | 9.7 | 14.5 | 0.00 | 0.00 | 0.00 | 83 | 1009.3 |
| 20260506092503 | 13 | 198 | 8.0 | 14.5 | 0.00 | 0.00 | 0.00 | 83 | 1009.2 |
| 20260506092006 | 13 | 228 | 6.4 | 14.5 | 0.00 | 0.00 | 0.00 | 83 | 1009.2 |
| 20260506091518 | 13 | 163 | 8.0 | 14.5 | 0.00 | 0.00 | 0.00 | 82 | 1009.3 |
| 20260506091010 | 13 | 184 | 4.8 | 16.1 | 0.00 | 0.00 | 0.00 | 82 | 1009.3 |
| 20260506090504 | 13 | 184 | 9.7 | 19.3 | 0.00 | 0.00 | 0.00 | 82 | 1009.3 |
| 20260506090024 | 13 | 191 | 6.4 | 19.3 | 0.00 | 0.00 | 0.00 | 81 | 1009.3 |
| 20260506085507 | 13 | 168 | 8.0 | 16.1 | 0.00 | 0.00 | 0.00 | 81 | 1009.4 |
| 20260506085008 | 13 | 196 | 11.3 | 16.1 | 0.00 | 0.00 | 0.00 | 81 | 1009.5 |
| 20260506084505 | 13 | 226 | 6.4 | 17.7 | 0.00 | 0.00 | 0.00 | 80 | 1009.5 |
| 20260506084003 | 13 | 173 | 9.7 | 17.7 | 0.00 | 0.00 | 0.00 | 80 | 1009.5 |
| 20260506083504 | 13 | 186 | 9.7 | 16.1 | 0.00 | 0.00 | 0.00 | 80 | 1009.5 |
| 20260506083016 | 13 | 193 | 8.0 | 14.5 | 0.00 | 0.00 | 0.00 | 79 | 1009.5 |
| 20260506082505 | 13 | 199 | 9.7 | 14.5 | 0.00 | 0.00 | 0.00 | 79 | 1009.4 |
| 20260506082004 | 13 | 173 | 6.4 | 12.9 | 0.00 | 0.00 | 0.00 | 78 | 1009.5 |
| 20260506081516 | 13 | 176 | 6.4 | 12.9 | 0.00 | 0.00 | 0.00 | 78 | 1009.5 |
| 20260506081012 | 13 | 225 | 6.4 | 17.7 | 0.00 | 0.00 | 0.00 | 77 | 1009.4 |
| 20260506080507 | 13 | 205 | 4.8 | 17.7 | 0.00 | 0.00 | 0.00 | 76 | 1009.4 |
| 20260506073506 | 15 | 200 | 3.2 | 9.7 | 0.00 | 0.00 | 0.00 | 73 | 1009.4 |
| 20260506073007 | 15 | 213 | 3.2 | 11.3 | 0.00 | 0.00 | 0.00 | 73 | 1009.4 |
| 20260506072504 | 15 | 196 | 6.4 | 11.3 | 0.00 | 0.00 | 0.00 | 72 | 1009.4 |
| 20260506072003 | 15 | 192 | 3.2 | 11.3 | 0.00 | 0.00 | 0.00 | 72 | 1009.4 |
| 20260506071510 | 15 | 183 | 6.4 | 11.3 | 0.00 | 0.00 | 0.00 | 71 | 1009.5 |
| 20260506071004 | 15 | 199 | 1.6 | 9.7 | 0.00 | 0.00 | 0.00 | 71 | 1009.5 |
| 20260506070504 | 15 | 203 | 6.4 | 9.7 | 0.00 | 0.00 | 0.00 | 71 | 1009.5 |
| 20260506062511 | 16 | 188 | 6.4 | 20.9 | 0.00 | 0.00 | 0.00 | 68 | 1009.6 |
| 20260506062002 | 16 | 210 | 8.0 | 25.7 | 0.00 | 0.00 | 0.00 | 68 | 1009.6 |
| 20260506061511 | 16 | 198 | 11.3 | 25.7 | 0.00 | 0.00 | 0.00 | 68 | 1009.6 |
| 20260506061004 | 16 | 202 | 16.1 | 25.7 | 0.00 | 0.00 | 0.00 | 68 | 1009.6 |
| 20260506060506 | 16 | 192 | 9.7 | 22.5 | 0.00 | 0.00 | 0.00 | 68 | 1009.6 |
| 20260506051003 | 17 | 169 | 11.3 | 30.6 | 0.00 | 0.00 | 0.00 | 65 | 1010.0 |
| 20260506050504 | 17 | 196 | 12.9 | 27.4 | 0.00 | 0.00 | 0.00 | 65 | 1010.0 |
| 20260506045004 | 17 | 192 | 9.7 | 24.1 | 0.00 | 0.00 | 0.00 | 65 | 1010.0 |
| 20260506044519 | 16 | 178 | 14.5 | 25.7 | 0.00 | 0.00 | 0.00 | 65 | 1010.0 |
| 20260506044005 | 16 | 171 | 14.5 | 25.7 | 0.00 | 0.00 | 0.00 | 65 | 1010.1 |
| 20260506043506 | 16 | 198 | 9.7 | 16.1 | 0.00 | 0.00 | 0.00 | 65 | 1010.1 |
| 20260506043024 | 16 | 188 | 9.7 | 20.9 | 0.00 | 0.00 | 0.00 | 65 | 1010.1 |
| 20260506042508 | 16 | 190 | 9.7 | 20.9 | 0.00 | 0.00 | 0.00 | 65 | 1010.1 |
| 20260506042008 | 16 | 174 | 11.3 | 20.9 | 0.00 | 0.00 | 0.00 | 65 | 1010.1 |
| 20260506041536 | 16 | 190 | 8.0 | 19.3 | 0.00 | 0.00 | 0.00 | 65 | 1010.1 |
| 20260506041008 | 16 | 166 | 6.4 | 19.3 | 0.00 | 0.00 | 0.00 | 65 | 1010.1 |
| 20260506040512 | 16 | 214 | 11.3 | 19.3 | 0.00 | 0.00 | 0.00 | 64 | 1010.0 |
| 20260506040029 | 16 | 232 | 8.0 | 20.9 | 0.00 | 0.00 | 0.00 | 64 | 1010.1 |
| 20260506035506 | 17 | 247 | 12.9 | 20.9 | 0.00 | 0.00 | 0.00 | 64 | 1010.1 |
| 20260506035004 | 17 | 193 | 6.4 | 24.1 | 0.00 | 0.00 | 0.00 | 64 | 1010.1 |
| 20260506034525 | 17 | 191 | 12.9 | 24.1 | 0.00 | 0.00 | 0.00 | 63 | 1010.1 |
| 20260506034006 | 17 | 200 | 12.9 | 22.5 | 0.00 | 0.00 | 0.00 | 63 | 1010.2 |
| 20260506033504 | 17 | 153 | 12.9 | 20.9 | 0.00 | 0.00 | 0.00 | 63 | 1010.2 |
| 20260506033019 | 17 | 179 | 9.7 | 24.1 | 0.00 | 0.00 | 0.00 | 63 | 1010.2 |
| 20260506032507 | 17 | 196 | 8.0 | 24.1 | 0.00 | 0.00 | 0.00 | 63 | 1010.3 |
| 20260506032008 | 17 | 223 | 11.3 | 19.3 | 0.00 | 0.00 | 0.00 | 63 | 1010.2 |
| 20260506031525 | 17 | 194 | 6.4 | 14.5 | 0.00 | 0.00 | 0.00 | 63 | 1010.3 |
| 20260506031009 | 17 | 198 | 4.8 | 19.3 | 0.00 | 0.00 | 0.00 | 63 | 1010.3 |
| 20260506030514 | 17 | 173 | 9.7 | 27.4 | 0.00 | 0.00 | 0.00 | 62 | 1010.3 |
| 20260506030028 | 17 | 209 | 9.7 | 27.4 | 0.00 | 0.00 | 0.00 | 62 | 1010.3 |
| 20260506025516 | 17 | 191 | 9.7 | 20.9 | 0.00 | 0.00 | 0.00 | 61 | 1010.3 |
| 20260506025010 | 17 | 227 | 9.7 | 20.9 | 0.00 | 0.00 | 0.00 | 60 | 1010.2 |
| 20260506024513 | 17 | 203 | 11.3 | 22.5 | 0.00 | 0.00 | 0.00 | 60 | 1010.3 |
| 20260506024008 | 17 | 200 | 12.9 | 22.5 | 0.00 | 0.00 | 0.00 | 59 | 1010.2 |
| 20260506023512 | 17 | 189 | 9.7 | 17.7 | 0.00 | 0.00 | 0.00 | 60 | 1010.2 |
| 20260506023018 | 17 | 213 | 12.9 | 16.1 | 0.00 | 0.00 | 0.00 | 59 | 1010.0 |
| 20260506022511 | 17 | 202 | 11.3 | 24.1 | 0.00 | 0.00 | 0.00 | 59 | 1009.9 |
| 20260506022004 | 17 | 198 | 9.7 | 24.1 | 0.00 | 0.00 | 0.00 | 60 | 1010.0 |
| 20260506021525 | 17 | 184 | 9.7 | 17.7 | 0.00 | 0.00 | 0.00 | 59 | 1009.9 |
| 20260506021010 | 17 | 175 | 4.8 | 14.5 | 0.00 | 0.00 | 0.00 | 61 | 1009.7 |
| 20260506020511 | 17 | 202 | 4.8 | 11.3 | 0.00 | 0.00 | 0.00 | 60 | 1009.8 |
| 20260506020025 | 17 | 217 | 6.4 | 14.5 | 0.00 | 0.00 | 0.00 | 61 | 1009.8 |
| 20260506015507 | 17 | 178 | 6.4 | 14.5 | 0.00 | 0.00 | 0.00 | 60 | 1009.8 |
| 20260506015009 | 17 | 172 | 8.0 | 16.1 | 0.00 | 0.00 | 0.00 | 60 | 1009.8 |
| 20260506014525 | 17 | 190 | 4.8 | 16.1 | 0.00 | 0.00 | 0.00 | 61 | 1009.9 |
| 20260506014010 | 17 | 195 | 8.0 | 14.5 | 0.00 | 0.00 | 0.00 | 60 | 1009.9 |
| 20260506013511 | 17 | 188 | 4.8 | 17.7 | 0.00 | 0.00 | 0.00 | 60 | 1009.8 |
| 20260506013034 | 17 | 191 | 8.0 | 17.7 | 0.00 | 0.00 | 0.00 | 60 | 1009.8 |
| 20260506012507 | 17 | 179 | 4.8 | 12.9 | 0.00 | 0.00 | 0.00 | 61 | 1009.8 |
| 20260506012010 | 17 | 209 | 4.8 | 12.9 | 0.00 | 0.00 | 0.00 | 61 | 1009.8 |
| 20260506011526 | 17 | 201 | 6.4 | 11.3 | 0.00 | 0.00 | 0.00 | 61 | 1009.8 |
| 20260506011008 | 17 | 200 | 6.4 | 12.9 | 0.00 | 0.00 | 0.00 | 61 | 1009.7 |
| 20260506010506 | 17 | 159 | 8.0 | 12.9 | 0.00 | 0.00 | 0.00 | 61 | 1009.6 |
| 20260506010028 | 17 | 189 | 6.4 | 12.9 | 0.00 | 0.00 | 0.00 | 60 | 1009.6 |
| 20260506005510 | 18 | 205 | 4.8 | 11.3 | 0.00 | 0.00 | 0.00 | 61 | 1009.5 |
| 20260506005010 | 18 | 188 | 6.4 | 14.5 | 0.00 | 0.00 | 0.00 | 60 | 1009.5 |
| 20260506004527 | 18 | 208 | 8.0 | 14.5 | 0.00 | 0.00 | 0.00 | 60 | 1009.4 |
| 20260506004012 | 18 | 186 | 6.4 | 14.5 | 0.00 | 0.00 | 0.00 | 59 | 1009.4 |
| 20260506003512 | 18 | 188 | 6.4 | 16.1 | 0.00 | 0.00 | 0.00 | 59 | 1009.3 |
| 20260506003027 | 18 | 180 | 6.4 | 16.1 | 0.00 | 0.00 | 0.00 | 58 | 1009.3 |
| 20260506002510 | 18 | 186 | 6.4 | 19.3 | 0.00 | 0.00 | 0.00 | 58 | 1009.2 |
| 20260506002007 | 18 | 219 | 8.0 | 19.3 | 0.00 | 0.00 | 0.00 | 57 | 1009.0 |
| 20260506001519 | 18 | 208 | 8.0 | 19.3 | 0.00 | 0.00 | 0.00 | 57 | 1008.9 |
| 20260506001007 | 19 | 211 | 8.0 | 19.3 | 0.00 | 0.00 | 0.00 | 56 | 1008.9 |
| 20260506000506 | 19 | 185 | 8.0 | 19.3 | 0.00 | 0.00 | 0.00 | 56 | 1008.8 |
| 20260506000025 | 20 | 200 | 9.7 | 19.3 | 0.00 | 0.00 | 0.00 | 55 | 1008.8 |
| 20260505235506 | 20 | 175 | 12.9 | 24.1 | 0.00 | 0.00 | 0.00 | 54 | 1008.7 |
| 20260505235012 | 20 | 233 | 9.7 | 24.1 | 0.00 | 0.00 | 0.00 | 53 | 1008.6 |
| 20260505234526 | 20 | 174 | 8.0 | 17.7 | 0.00 | 0.00 | 0.00 | 53 | 1008.5 |
| 20260505234008 | 20 | 200 | 8.0 | 19.3 | 0.00 | 0.00 | 0.00 | 52 | 1008.5 |
| 20260505233511 | 21 | 209 | 11.3 | 19.3 | 0.00 | 0.00 | 0.00 | 51 | 1008.3 |
| 20260505233028 | 21 | 219 | 6.4 | 20.9 | 0.00 | 0.00 | 0.00 | 50 | 1008.2 |
| 20260505232514 | 21 | 188 | 9.7 | 20.9 | 0.00 | 0.00 | 0.00 | 49 | 1008.2 |
| 20260505232011 | 21 | 217 | 12.9 | 27.4 | 0.00 | 0.00 | 0.00 | 49 | 1008.1 |
| 20260505231529 | 21 | 222 | 16.1 | 30.6 | 0.00 | 0.00 | 0.00 | 49 | 1008.1 |
| 20260505231008 | 21 | 204 | 12.9 | 30.6 | 0.00 | 0.00 | 0.00 | 48 | 1008.0 |
| 20260505230509 | 21 | 190 | 11.3 | 27.4 | 0.00 | 0.00 | 0.00 | 48 | 1007.9 |
| 20260505230020 | 21 | 250 | 12.9 | 25.7 | 0.00 | 0.00 | 0.00 | 47 | 1007.9 |
| 20260505225509 | 21 | 198 | 11.3 | 25.7 | 0.00 | 0.00 | 0.00 | 48 | 1007.8 |
| 20260505225008 | 21 | 234 | 17.7 | 32.2 | 0.00 | 0.00 | 0.00 | 47 | 1007.8 |
| 20260505224524 | 21 | 198 | 19.3 | 32.2 | 0.00 | 0.00 | 0.00 | 47 | 1007.8 |
| 20260505224007 | 21 | 205 | 14.5 | 29.0 | 0.00 | 0.00 | 0.00 | 47 | 1007.7 |
| 20260505223510 | 22 | 192 | 16.1 | 30.6 | 0.00 | 0.00 | 0.00 | 47 | 1007.7 |
| 20260505223037 | 22 | 168 | 16.1 | 30.6 | 0.00 | 0.00 | 0.00 | 47 | 1007.5 |
| 20260505222515 | 22 | 199 | 14.5 | 32.2 | 0.00 | 0.00 | 0.00 | 47 | 1007.5 |
| 20260505222003 | 22 | 223 | 12.9 | 32.2 | 0.00 | 0.00 | 0.00 | 46 | 1007.5 |
| 20260505221525 | 22 | 174 | 16.1 | 32.2 | 0.00 | 0.00 | 0.00 | 46 | 1007.5 |
| 20260505221005 | 22 | 242 | 17.7 | 32.2 | 0.00 | 0.00 | 0.00 | 46 | 1007.3 |
| 20260505220506 | 22 | 176 | 14.5 | 37.0 | 0.00 | 0.00 | 0.00 | 46 | 1007.4 |
| 20260505220029 | 22 | 198 | 17.7 | 43.5 | 0.00 | 0.00 | 0.00 | 46 | 1007.3 |
| 20260505215506 | 22 | 206 | 20.9 | 43.5 | 0.00 | 0.00 | 0.00 | 46 | 1007.3 |
| 20260505215004 | 22 | 195 | 17.7 | 41.8 | 0.00 | 0.00 | 0.00 | 45 | 1007.3 |
| 20260505214533 | 23 | 179 | 20.9 | 40.2 | 0.00 | 0.00 | 0.00 | 45 | 1007.3 |
| 20260505214001 | 23 | 223 | 16.1 | 35.4 | 0.00 | 0.00 | 0.00 | 45 | 1007.2 |
| 20260505213502 | 23 | 177 | 16.1 | 37.0 | 0.00 | 0.00 | 0.00 | 46 | 1007.2 |
| 20260505213007 | 23 | 190 | 17.7 | 38.6 | 0.00 | 0.00 | 0.00 | 45 | 1007.2 |
| 20260505212503 | 23 | 234 | 22.5 | 38.6 | 0.00 | 0.00 | 0.00 | 43 | 1007.3 |
| 20260505212008 | 23 | 208 | 19.3 | 41.8 | 0.00 | 0.00 | 0.00 | 44 | 1007.3 |
| 20260505211512 | 23 | 174 | 22.5 | 41.8 | 0.00 | 0.00 | 0.00 | 43 | 1007.3 |
| 20260505211003 | 23 | 161 | 20.9 | 35.4 | 0.00 | 0.00 | 0.00 | 42 | 1007.3 |
| 20260505210503 | 23 | 227 | 20.9 | 43.5 | 0.00 | 0.00 | 0.00 | 43 | 1007.2 |
| 20260505210016 | 23 | 218 | 16.1 | 43.5 | 0.00 | 0.00 | 0.00 | 44 | 1007.2 |
| 20260505205506 | 23 | 236 | 16.1 | 37.0 | 0.00 | 0.00 | 0.00 | 43 | 1007.2 |
| 20260505205008 | 23 | 219 | 22.5 | 33.8 | 0.00 | 0.00 | 0.00 | 44 | 1007.3 |
| 20260505204526 | 23 | 199 | 8.0 | 33.8 | 0.00 | 0.00 | 0.00 | 45 | 1007.3 |
| 20260505204008 | 23 | 203 | 20.9 | 40.2 | 0.00 | 0.00 | 0.00 | 43 | 1007.2 |
| 20260505203507 | 23 | 129 | 16.1 | 40.2 | 0.00 | 0.00 | 0.00 | 43 | 1007.3 |
| 20260505203007 | 23 | 190 | 22.5 | 38.6 | 0.00 | 0.00 | 0.00 | 43 | 1007.3 |